sensor_id;sensor_type;location;lat;lon;timestamp;noise_LAeq;noise_LA_min;noise_LA_max;noise_LA01;noise_LA95
71030;Laerm;63723;51.436;5.976;2024-01-11T00:00:02;54.60;52.27;57.03;;
71030;Laerm;63723;51.436;5.976;2024-01-11T00:00:13;54.20;52.40;57.61;;
71030;Laerm;63723;51.436;5.976;2024-01-11T00:00:23;54.29;52.53;58.76;;
71030;Laerm;63723;51.436;5.976;2024-01-11T00:00:33;54.94;52.88;57.36;;
71030;Laerm;63723;51.436;5.976;2024-01-11T00:00:43;55.66;52.73;58.37;;
71030;Laerm;63723;51.436;5.976;2024-01-11T00:00:53;55.88;53.51;58.81;;
71030;Laerm;63723;51.436;5.976;2024-01-11T00:01:04;55.81;53.41;58.53;;
71030;Laerm;63723;51.436;5.976;2024-01-11T00:01:14;55.72;52.90;58.35;;
71030;Laerm;63723;51.436;5.976;2024-01-11T00:01:24;55.88;52.92;58.42;;
71030;Laerm;63723;51.436;5.976;2024-01-11T00:01:34;55.92;53.23;58.57;;
71030;Laerm;63723;51.436;5.976;2024-01-11T00:01:48;55.68;52.84;58.71;;
71030;Laerm;63723;51.436;5.976;2024-01-11T00:01:58;55.66;52.51;58.06;;
71030;Laerm;63723;51.436;5.976;2024-01-11T00:02:09;55.77;53.72;58.33;;
71030;Laerm;63723;51.436;5.976;2024-01-11T00:02:19;55.90;53.00;58.59;;
71030;Laerm;63723;51.436;5.976;2024-01-11T00:02:29;55.98;53.22;58.50;;
71030;Laerm;63723;51.436;5.976;2024-01-11T00:02:40;55.86;53.34;58.80;;
71030;Laerm;63723;51.436;5.976;2024-01-11T00:02:50;55.88;53.42;58.69;;
71030;Laerm;63723;51.436;5.976;2024-01-11T00:03:00;55.74;52.97;58.57;;
71030;Laerm;63723;51.436;5.976;2024-01-11T00:03:10;55.81;52.17;58.85;;
71030;Laerm;63723;51.436;5.976;2024-01-11T00:03:21;55.66;52.07;59.06;;
71030;Laerm;63723;51.436;5.976;2024-01-11T00:03:31;55.76;53.12;58.50;;
71030;Laerm;63723;51.436;5.976;2024-01-11T00:03:41;55.92;52.11;58.91;;
71030;Laerm;63723;51.436;5.976;2024-01-11T00:03:52;55.92;53.25;58.53;;
71030;Laerm;63723;51.436;5.976;2024-01-11T00:04:02;55.77;53.57;58.44;;
71030;Laerm;63723;51.436;5.976;2024-01-11T00:04:12;55.91;52.96;58.30;;
71030;Laerm;63723;51.436;5.976;2024-01-11T00:04:22;55.59;52.75;58.26;;
71030;Laerm;63723;51.436;5.976;2024-01-11T00:04:33;55.67;51.70;58.32;;
71030;Laerm;63723;51.436;5.976;2024-01-11T00:04:43;55.94;52.62;58.50;;
71030;Laerm;63723;51.436;5.976;2024-01-11T00:04:54;55.78;52.46;58.65;;
71030;Laerm;63723;51.436;5.976;2024-01-11T00:05:04;55.71;53.06;58.00;;
71030;Laerm;63723;51.436;5.976;2024-01-11T00:05:14;55.92;53.18;58.84;;
71030;Laerm;63723;51.436;5.976;2024-01-11T00:05:24;55.68;52.35;58.21;;
71030;Laerm;63723;51.436;5.976;2024-01-11T00:05:35;55.53;53.08;59.42;;
71030;Laerm;63723;51.436;5.976;2024-01-11T00:05:45;55.48;52.38;58.03;;
71030;Laerm;63723;51.436;5.976;2024-01-11T00:05:56;55.79;52.76;59.32;;
71030;Laerm;63723;51.436;5.976;2024-01-11T00:06:06;55.79;52.71;58.90;;
71030;Laerm;63723;51.436;5.976;2024-01-11T00:06:16;55.41;51.79;57.82;;
71030;Laerm;63723;51.436;5.976;2024-01-11T00:06:26;55.71;53.42;58.57;;
71030;Laerm;63723;51.436;5.976;2024-01-11T00:06:40;55.83;50.84;58.55;;
71030;Laerm;63723;51.436;5.976;2024-01-11T00:06:51;55.83;52.47;59.17;;
71030;Laerm;63723;51.436;5.976;2024-01-11T00:07:01;55.88;53.49;58.27;;
71030;Laerm;63723;51.436;5.976;2024-01-11T00:07:12;56.01;53.65;58.33;;
71030;Laerm;63723;51.436;5.976;2024-01-11T00:07:22;55.68;53.54;58.42;;
71030;Laerm;63723;51.436;5.976;2024-01-11T00:07:32;54.16;50.85;58.38;;
71030;Laerm;63723;51.436;5.976;2024-01-11T00:07:42;53.23;51.11;55.21;;
71030;Laerm;63723;51.436;5.976;2024-01-11T00:07:53;53.17;51.41;55.10;;
71030;Laerm;63723;51.436;5.976;2024-01-11T00:08:03;54.17;51.23;56.79;;
71030;Laerm;63723;51.436;5.976;2024-01-11T00:08:13;54.49;52.69;56.70;;
71030;Laerm;63723;51.436;5.976;2024-01-11T00:08:24;54.76;53.07;56.81;;
71030;Laerm;63723;51.436;5.976;2024-01-11T00:08:34;54.66;52.88;56.67;;
71030;Laerm;63723;51.436;5.976;2024-01-11T00:08:44;54.84;52.92;57.08;;
71030;Laerm;63723;51.436;5.976;2024-01-11T00:08:54;54.55;52.31;57.26;;
71030;Laerm;63723;51.436;5.976;2024-01-11T00:09:04;53.08;51.16;54.55;;
71030;Laerm;63723;51.436;5.976;2024-01-11T00:09:15;52.03;50.04;53.65;;
71030;Laerm;63723;51.436;5.976;2024-01-11T00:09:25;52.09;50.67;54.14;;
71030;Laerm;63723;51.436;5.976;2024-01-11T00:09:39;52.05;50.85;54.00;;
71030;Laerm;63723;51.436;5.976;2024-01-11T00:09:49;52.09;50.53;53.34;;
71030;Laerm;63723;51.436;5.976;2024-01-11T00:10:00;52.42;50.45;53.88;;
71030;Laerm;63723;51.436;5.976;2024-01-11T00:10:10;53.06;51.03;54.85;;
71030;Laerm;63723;51.436;5.976;2024-01-11T00:10:20;53.89;50.81;61.32;;
71030;Laerm;63723;51.436;5.976;2024-01-11T00:10:31;53.47;51.37;56.15;;
71030;Laerm;63723;51.436;5.976;2024-01-11T00:10:41;53.23;51.38;55.82;;
71030;Laerm;63723;51.436;5.976;2024-01-11T00:10:52;53.19;51.45;56.06;;
71030;Laerm;63723;51.436;5.976;2024-01-11T00:11:02;53.38;51.65;56.51;;
71030;Laerm;63723;51.436;5.976;2024-01-11T00:11:12;53.37;51.06;55.69;;
71030;Laerm;63723;51.436;5.976;2024-01-11T00:11:22;53.60;51.30;56.49;;
71030;Laerm;63723;51.436;5.976;2024-01-11T00:11:32;53.22;51.33;55.70;;
71030;Laerm;63723;51.436;5.976;2024-01-11T00:11:43;53.14;50.93;55.19;;
71030;Laerm;63723;51.436;5.976;2024-01-11T00:11:53;53.14;51.11;56.40;;
71030;Laerm;63723;51.436;5.976;2024-01-11T00:12:04;53.28;51.25;56.32;;
71030;Laerm;63723;51.436;5.976;2024-01-11T00:12:14;53.28;51.37;55.89;;
71030;Laerm;63723;51.436;5.976;2024-01-11T00:12:24;53.34;50.68;56.30;;
71030;Laerm;63723;51.436;5.976;2024-01-11T00:12:35;53.21;51.51;55.47;;
71030;Laerm;63723;51.436;5.976;2024-01-11T00:12:45;53.39;50.79;55.94;;
71030;Laerm;63723;51.436;5.976;2024-01-11T00:12:55;53.37;50.81;56.57;;
71030;Laerm;63723;51.436;5.976;2024-01-11T00:13:06;53.10;50.71;55.39;;
71030;Laerm;63723;51.436;5.976;2024-01-11T00:13:16;53.20;51.40;55.62;;
71030;Laerm;63723;51.436;5.976;2024-01-11T00:13:26;53.02;51.09;55.47;;
71030;Laerm;63723;51.436;5.976;2024-01-11T00:13:36;53.14;50.83;56.14;;
71030;Laerm;63723;51.436;5.976;2024-01-11T00:13:47;53.16;51.38;56.05;;
71030;Laerm;63723;51.436;5.976;2024-01-11T00:13:57;53.17;51.46;55.62;;
71030;Laerm;63723;51.436;5.976;2024-01-11T00:14:07;52.96;51.12;54.79;;
71030;Laerm;63723;51.436;5.976;2024-01-11T00:14:17;52.77;50.90;54.67;;
71030;Laerm;63723;51.436;5.976;2024-01-11T00:14:28;53.22;51.56;54.71;;
71030;Laerm;63723;51.436;5.976;2024-01-11T00:14:38;53.35;51.01;54.90;;
71030;Laerm;63723;51.436;5.976;2024-01-11T00:14:48;53.48;51.20;55.12;;
71030;Laerm;63723;51.436;5.976;2024-01-11T00:14:58;53.08;51.17;54.81;;
71030;Laerm;63723;51.436;5.976;2024-01-11T00:15:09;53.42;51.74;55.43;;
71030;Laerm;63723;51.436;5.976;2024-01-11T00:15:19;53.06;51.32;54.77;;
71030;Laerm;63723;51.436;5.976;2024-01-11T00:15:29;53.19;51.13;54.94;;
71030;Laerm;63723;51.436;5.976;2024-01-11T00:15:40;53.16;50.82;54.97;;
71030;Laerm;63723;51.436;5.976;2024-01-11T00:15:50;53.13;51.24;55.41;;
71030;Laerm;63723;51.436;5.976;2024-01-11T00:16:00;53.18;51.40;55.62;;
71030;Laerm;63723;51.436;5.976;2024-01-11T00:16:10;53.21;51.49;55.68;;
71030;Laerm;63723;51.436;5.976;2024-01-11T00:16:21;52.94;51.22;56.68;;
71030;Laerm;63723;51.436;5.976;2024-01-11T00:16:31;53.21;51.36;56.10;;
71030;Laerm;63723;51.436;5.976;2024-01-11T00:16:41;53.05;51.06;56.01;;
71030;Laerm;63723;51.436;5.976;2024-01-11T00:16:51;53.52;51.65;55.61;;
71030;Laerm;63723;51.436;5.976;2024-01-11T00:17:02;54.01;51.91;56.51;;
71030;Laerm;63723;51.436;5.976;2024-01-11T00:17:12;53.14;51.29;56.00;;
71030;Laerm;63723;51.436;5.976;2024-01-11T00:17:23;53.15;51.09;55.75;;
71030;Laerm;63723;51.436;5.976;2024-01-11T00:17:33;53.24;51.06;56.46;;
71030;Laerm;63723;51.436;5.976;2024-01-11T00:17:43;53.47;51.39;56.19;;
71030;Laerm;63723;51.436;5.976;2024-01-11T00:17:53;53.55;50.86;56.20;;
71030;Laerm;63723;51.436;5.976;2024-01-11T00:18:04;53.30;50.87;56.50;;
71030;Laerm;63723;51.436;5.976;2024-01-11T00:18:14;53.04;49.74;56.44;;
71030;Laerm;63723;51.436;5.976;2024-01-11T00:18:24;53.19;51.23;55.90;;
71030;Laerm;63723;51.436;5.976;2024-01-11T00:18:34;53.39;51.08;55.82;;
71030;Laerm;63723;51.436;5.976;2024-01-11T00:18:45;53.40;51.65;55.98;;
71030;Laerm;63723;51.436;5.976;2024-01-11T00:18:55;53.41;51.62;55.54;;
71030;Laerm;63723;51.436;5.976;2024-01-11T00:19:05;53.73;52.13;55.89;;
71030;Laerm;63723;51.436;5.976;2024-01-11T00:19:15;53.81;51.68;56.63;;
71030;Laerm;63723;51.436;5.976;2024-01-11T00:19:26;53.65;52.02;56.39;;
71030;Laerm;63723;51.436;5.976;2024-01-11T00:19:36;53.57;52.17;55.54;;
71030;Laerm;63723;51.436;5.976;2024-01-11T00:19:46;53.36;51.19;54.98;;
71030;Laerm;63723;51.436;5.976;2024-01-11T00:19:58;53.28;51.90;54.44;;
71030;Laerm;63723;51.436;5.976;2024-01-11T00:20:09;53.29;51.82;54.68;;
71030;Laerm;63723;51.436;5.976;2024-01-11T00:20:20;53.36;52.11;54.71;;
71030;Laerm;63723;51.436;5.976;2024-01-11T00:20:31;53.26;51.99;54.42;;
71030;Laerm;63723;51.436;5.976;2024-01-11T00:20:41;53.21;51.20;54.57;;
71030;Laerm;63723;51.436;5.976;2024-01-11T00:20:51;53.31;51.95;54.39;;
71030;Laerm;63723;51.436;5.976;2024-01-11T00:21:02;53.78;52.35;55.92;;
71030;Laerm;63723;51.436;5.976;2024-01-11T00:21:12;53.81;51.43;55.94;;
71030;Laerm;63723;51.436;5.976;2024-01-11T00:21:22;54.00;51.96;56.70;;
71030;Laerm;63723;51.436;5.976;2024-01-11T00:21:32;54.17;51.81;56.56;;
71030;Laerm;63723;51.436;5.976;2024-01-11T00:21:43;53.85;51.92;55.84;;
71030;Laerm;63723;51.436;5.976;2024-01-11T00:21:53;53.84;51.83;55.88;;
71030;Laerm;63723;51.436;5.976;2024-01-11T00:22:03;53.87;51.49;55.99;;
71030;Laerm;63723;51.436;5.976;2024-01-11T00:22:13;53.73;51.54;56.80;;
71030;Laerm;63723;51.436;5.976;2024-01-11T00:22:24;53.98;51.70;56.32;;
71030;Laerm;63723;51.436;5.976;2024-01-11T00:22:34;54.00;52.27;56.51;;
71030;Laerm;63723;51.436;5.976;2024-01-11T00:22:44;54.01;52.03;56.74;;
71030;Laerm;63723;51.436;5.976;2024-01-11T00:22:54;53.88;52.21;57.02;;
71030;Laerm;63723;51.436;5.976;2024-01-11T00:23:04;53.76;52.28;55.86;;
71030;Laerm;63723;51.436;5.976;2024-01-11T00:23:15;53.91;51.92;56.63;;
71030;Laerm;63723;51.436;5.976;2024-01-11T00:23:25;53.90;50.98;56.53;;
71030;Laerm;63723;51.436;5.976;2024-01-11T00:23:35;53.75;51.96;56.37;;
71030;Laerm;63723;51.436;5.976;2024-01-11T00:23:45;53.93;51.46;56.17;;
71030;Laerm;63723;51.436;5.976;2024-01-11T00:23:56;53.88;51.81;56.31;;
71030;Laerm;63723;51.436;5.976;2024-01-11T00:24:06;53.79;51.76;55.81;;
71030;Laerm;63723;51.436;5.976;2024-01-11T00:24:16;54.44;52.45;56.90;;
71030;Laerm;63723;51.436;5.976;2024-01-11T00:24:26;54.43;52.06;57.05;;
71030;Laerm;63723;51.436;5.976;2024-01-11T00:24:37;54.51;52.38;57.43;;
71030;Laerm;63723;51.436;5.976;2024-01-11T00:24:47;53.98;52.11;57.03;;
71030;Laerm;63723;51.436;5.976;2024-01-11T00:24:57;53.70;51.59;56.01;;
71030;Laerm;63723;51.436;5.976;2024-01-11T00:25:08;53.71;50.95;56.06;;
71030;Laerm;63723;51.436;5.976;2024-01-11T00:25:18;53.88;52.27;56.13;;
71030;Laerm;63723;51.436;5.976;2024-01-11T00:25:28;53.79;51.83;55.75;;
71030;Laerm;63723;51.436;5.976;2024-01-11T00:25:38;53.78;51.50;55.72;;
71030;Laerm;63723;51.436;5.976;2024-01-11T00:25:49;53.76;51.46;55.67;;
71030;Laerm;63723;51.436;5.976;2024-01-11T00:25:59;53.86;51.86;56.42;;
71030;Laerm;63723;51.436;5.976;2024-01-11T00:26:12;54.31;52.31;56.60;;
71030;Laerm;63723;51.436;5.976;2024-01-11T00:26:22;54.23;51.67;56.46;;
71030;Laerm;63723;51.436;5.976;2024-01-11T00:26:32;53.54;51.74;56.17;;
71030;Laerm;63723;51.436;5.976;2024-01-11T00:26:42;53.53;51.52;56.06;;
71030;Laerm;63723;51.436;5.976;2024-01-11T00:26:53;53.57;51.11;55.65;;
71030;Laerm;63723;51.436;5.976;2024-01-11T00:27:03;53.39;51.18;56.02;;
71030;Laerm;63723;51.436;5.976;2024-01-11T00:27:13;53.43;50.80;56.32;;
71030;Laerm;63723;51.436;5.976;2024-01-11T00:27:24;53.58;51.30;56.51;;
71030;Laerm;63723;51.436;5.976;2024-01-11T00:27:34;53.67;51.56;56.35;;
71030;Laerm;63723;51.436;5.976;2024-01-11T00:27:44;53.55;51.31;55.96;;
71030;Laerm;63723;51.436;5.976;2024-01-11T00:27:54;53.52;50.68;56.00;;
71030;Laerm;63723;51.436;5.976;2024-01-11T00:28:05;53.52;51.18;55.49;;
71030;Laerm;63723;51.436;5.976;2024-01-11T00:28:15;53.36;51.37;56.47;;
71030;Laerm;63723;51.436;5.976;2024-01-11T00:28:25;53.39;51.18;55.84;;
71030;Laerm;63723;51.436;5.976;2024-01-11T00:28:35;53.42;50.72;55.86;;
71030;Laerm;63723;51.436;5.976;2024-01-11T00:28:46;53.26;50.66;55.58;;
71030;Laerm;63723;51.436;5.976;2024-01-11T00:28:56;53.18;51.11;56.05;;
71030;Laerm;63723;51.436;5.976;2024-01-11T00:29:06;53.14;50.76;56.41;;
71030;Laerm;63723;51.436;5.976;2024-01-11T00:29:17;53.07;51.19;55.53;;
71030;Laerm;63723;51.436;5.976;2024-01-11T00:29:27;53.06;50.84;55.49;;
71030;Laerm;63723;51.436;5.976;2024-01-11T00:29:38;53.52;51.47;55.77;;
71030;Laerm;63723;51.436;5.976;2024-01-11T00:29:48;53.06;50.28;56.41;;
71030;Laerm;63723;51.436;5.976;2024-01-11T00:29:59;53.15;50.85;56.74;;
71030;Laerm;63723;51.436;5.976;2024-01-11T00:30:09;53.09;51.14;55.40;;
71030;Laerm;63723;51.436;5.976;2024-01-11T00:30:19;53.21;51.36;55.86;;
71030;Laerm;63723;51.436;5.976;2024-01-11T00:30:29;53.01;50.36;55.95;;
71030;Laerm;63723;51.436;5.976;2024-01-11T00:30:40;53.05;51.12;56.07;;
71030;Laerm;63723;51.436;5.976;2024-01-11T00:30:50;53.05;50.88;55.39;;
71030;Laerm;63723;51.436;5.976;2024-01-11T00:31:00;52.99;50.46;54.99;;
71030;Laerm;63723;51.436;5.976;2024-01-11T00:31:10;53.11;51.21;55.59;;
71030;Laerm;63723;51.436;5.976;2024-01-11T00:31:21;53.27;50.42;56.22;;
71030;Laerm;63723;51.436;5.976;2024-01-11T00:31:31;53.02;50.73;54.91;;
71030;Laerm;63723;51.436;5.976;2024-01-11T00:31:41;53.16;50.95;55.67;;
71030;Laerm;63723;51.436;5.976;2024-01-11T00:31:51;53.20;50.81;55.92;;
71030;Laerm;63723;51.436;5.976;2024-01-11T00:32:02;53.09;51.08;56.14;;
71030;Laerm;63723;51.436;5.976;2024-01-11T00:32:12;53.16;51.28;55.58;;
71030;Laerm;63723;51.436;5.976;2024-01-11T00:32:22;53.12;51.01;56.06;;
71030;Laerm;63723;51.436;5.976;2024-01-11T00:32:33;53.33;51.09;55.85;;
71030;Laerm;63723;51.436;5.976;2024-01-11T00:32:43;53.25;51.12;55.81;;
71030;Laerm;63723;51.436;5.976;2024-01-11T00:32:53;53.20;50.66;55.54;;
71030;Laerm;63723;51.436;5.976;2024-01-11T00:33:04;53.26;51.26;56.22;;
71030;Laerm;63723;51.436;5.976;2024-01-11T00:33:14;53.12;50.61;55.38;;
71030;Laerm;63723;51.436;5.976;2024-01-11T00:33:24;53.25;51.20;55.59;;
71030;Laerm;63723;51.436;5.976;2024-01-11T00:33:34;53.05;51.07;55.22;;
71030;Laerm;63723;51.436;5.976;2024-01-11T00:33:45;53.22;51.47;55.38;;
71030;Laerm;63723;51.436;5.976;2024-01-11T00:33:55;53.27;51.08;56.34;;
71030;Laerm;63723;51.436;5.976;2024-01-11T00:34:05;53.29;50.72;55.28;;
71030;Laerm;63723;51.436;5.976;2024-01-11T00:34:15;53.13;50.98;56.28;;
71030;Laerm;63723;51.436;5.976;2024-01-11T00:34:26;53.19;50.69;55.94;;
71030;Laerm;63723;51.436;5.976;2024-01-11T00:34:36;53.12;50.87;55.20;;
71030;Laerm;63723;51.436;5.976;2024-01-11T00:34:47;53.30;50.82;55.47;;
71030;Laerm;63723;51.436;5.976;2024-01-11T00:34:57;53.33;51.50;55.53;;
71030;Laerm;63723;51.436;5.976;2024-01-11T00:35:07;53.15;51.00;55.77;;
71030;Laerm;63723;51.436;5.976;2024-01-11T00:35:18;53.26;51.47;55.72;;
71030;Laerm;63723;51.436;5.976;2024-01-11T00:35:28;53.08;51.17;55.39;;
71030;Laerm;63723;51.436;5.976;2024-01-11T00:35:38;53.95;50.61;57.29;;
71030;Laerm;63723;51.436;5.976;2024-01-11T00:35:48;53.98;51.20;56.77;;
71030;Laerm;63723;51.436;5.976;2024-01-11T00:35:59;53.83;51.09;56.72;;
71030;Laerm;63723;51.436;5.976;2024-01-11T00:36:09;53.69;50.84;56.75;;
71030;Laerm;63723;51.436;5.976;2024-01-11T00:36:19;53.04;51.10;54.93;;
71030;Laerm;63723;51.436;5.976;2024-01-11T00:36:32;53.22;50.84;55.73;;
71030;Laerm;63723;51.436;5.976;2024-01-11T00:36:46;53.15;51.02;55.44;;
71030;Laerm;63723;51.436;5.976;2024-01-11T00:36:57;53.06;50.55;55.06;;
71030;Laerm;63723;51.436;5.976;2024-01-11T00:37:07;53.10;50.76;55.80;;
71030;Laerm;63723;51.436;5.976;2024-01-11T00:37:17;53.19;50.44;55.76;;
71030;Laerm;63723;51.436;5.976;2024-01-11T00:37:27;53.17;50.87;55.36;;
71030;Laerm;63723;51.436;5.976;2024-01-11T00:37:38;53.49;51.51;55.24;;
71030;Laerm;63723;51.436;5.976;2024-01-11T00:37:48;53.70;51.88;55.95;;
71030;Laerm;63723;51.436;5.976;2024-01-11T00:37:59;53.48;51.22;55.60;;
71030;Laerm;63723;51.436;5.976;2024-01-11T00:38:09;53.59;51.77;55.48;;
71030;Laerm;63723;51.436;5.976;2024-01-11T00:38:19;53.58;51.64;56.15;;
71030;Laerm;63723;51.436;5.976;2024-01-11T00:38:30;53.51;51.60;55.36;;
71030;Laerm;63723;51.436;5.976;2024-01-11T00:38:40;53.55;51.59;55.78;;
71030;Laerm;63723;51.436;5.976;2024-01-11T00:38:50;53.54;50.78;55.94;;
71030;Laerm;63723;51.436;5.976;2024-01-11T00:39:01;53.51;51.66;55.36;;
71030;Laerm;63723;51.436;5.976;2024-01-11T00:39:11;53.35;51.59;55.86;;
71030;Laerm;63723;51.436;5.976;2024-01-11T00:39:21;53.28;51.10;55.10;;
71030;Laerm;63723;51.436;5.976;2024-01-11T00:39:32;53.51;51.49;55.23;;
71030;Laerm;63723;51.436;5.976;2024-01-11T00:39:42;53.58;51.07;55.83;;
71030;Laerm;63723;51.436;5.976;2024-01-11T00:39:53;53.47;51.32;55.76;;
71030;Laerm;63723;51.436;5.976;2024-01-11T00:40:04;53.66;51.70;56.05;;
71030;Laerm;63723;51.436;5.976;2024-01-11T00:40:14;53.52;51.87;55.61;;
71030;Laerm;63723;51.436;5.976;2024-01-11T00:40:25;53.55;52.02;55.54;;
71030;Laerm;63723;51.436;5.976;2024-01-11T00:40:35;53.91;51.88;55.80;;
71030;Laerm;63723;51.436;5.976;2024-01-11T00:40:45;54.06;51.86;56.78;;
71030;Laerm;63723;51.436;5.976;2024-01-11T00:40:56;54.24;52.14;57.10;;
71030;Laerm;63723;51.436;5.976;2024-01-11T00:41:06;54.22;51.70;56.57;;
71030;Laerm;63723;51.436;5.976;2024-01-11T00:41:16;54.27;51.22;56.90;;
71030;Laerm;63723;51.436;5.976;2024-01-11T00:41:27;54.24;52.08;57.25;;
71030;Laerm;63723;51.436;5.976;2024-01-11T00:41:37;54.13;52.23;56.93;;
71030;Laerm;63723;51.436;5.976;2024-01-11T00:41:47;53.81;51.73;55.80;;
71030;Laerm;63723;51.436;5.976;2024-01-11T00:41:57;53.79;52.19;55.27;;
71030;Laerm;63723;51.436;5.976;2024-01-11T00:42:08;53.76;52.23;55.38;;
71030;Laerm;63723;51.436;5.976;2024-01-11T00:42:18;53.85;51.81;55.64;;
71030;Laerm;63723;51.436;5.976;2024-01-11T00:42:28;53.85;51.80;55.71;;
71030;Laerm;63723;51.436;5.976;2024-01-11T00:42:38;53.76;51.39;55.61;;
71030;Laerm;63723;51.436;5.976;2024-01-11T00:42:49;53.74;51.36;55.69;;
71030;Laerm;63723;51.436;5.976;2024-01-11T00:42:59;53.67;51.41;55.06;;
71030;Laerm;63723;51.436;5.976;2024-01-11T00:43:09;53.74;52.18;55.63;;
71030;Laerm;63723;51.436;5.976;2024-01-11T00:43:19;53.24;51.47;55.00;;
71030;Laerm;63723;51.436;5.976;2024-01-11T00:43:29;53.12;51.25;54.75;;
71030;Laerm;63723;51.436;5.976;2024-01-11T00:43:40;53.34;51.05;55.30;;
71030;Laerm;63723;51.436;5.976;2024-01-11T00:43:50;53.52;51.01;55.28;;
71030;Laerm;63723;51.436;5.976;2024-01-11T00:44:00;53.44;51.15;55.17;;
71030;Laerm;63723;51.436;5.976;2024-01-11T00:44:11;53.50;51.89;55.31;;
71030;Laerm;63723;51.436;5.976;2024-01-11T00:44:21;53.44;51.61;55.23;;
71030;Laerm;63723;51.436;5.976;2024-01-11T00:44:31;53.37;51.61;55.41;;
71030;Laerm;63723;51.436;5.976;2024-01-11T00:44:41;53.32;51.46;54.98;;
71030;Laerm;63723;51.436;5.976;2024-01-11T00:44:52;53.18;51.59;54.92;;
71030;Laerm;63723;51.436;5.976;2024-01-11T00:45:02;53.15;51.15;54.92;;
71030;Laerm;63723;51.436;5.976;2024-01-11T00:45:12;53.03;51.40;55.07;;
71030;Laerm;63723;51.436;5.976;2024-01-11T00:45:23;52.83;50.84;55.14;;
71030;Laerm;63723;51.436;5.976;2024-01-11T00:45:33;53.07;51.41;54.93;;
71030;Laerm;63723;51.436;5.976;2024-01-11T00:45:45;54.09;52.39;55.78;;
71030;Laerm;63723;51.436;5.976;2024-01-11T00:45:56;54.03;52.63;55.45;;
71030;Laerm;63723;51.436;5.976;2024-01-11T00:46:06;54.25;52.80;55.36;;
71030;Laerm;63723;51.436;5.976;2024-01-11T00:46:16;53.68;51.35;55.29;;
71030;Laerm;63723;51.436;5.976;2024-01-11T00:46:26;53.37;51.18;54.99;;
71030;Laerm;63723;51.436;5.976;2024-01-11T00:46:36;53.44;51.56;55.09;;
71030;Laerm;63723;51.436;5.976;2024-01-11T00:46:48;53.44;51.06;55.28;;
71030;Laerm;63723;51.436;5.976;2024-01-11T00:46:58;53.39;51.11;55.05;;
71030;Laerm;63723;51.436;5.976;2024-01-11T00:47:09;53.54;51.66;55.44;;
71030;Laerm;63723;51.436;5.976;2024-01-11T00:47:20;53.47;51.46;55.05;;
71030;Laerm;63723;51.436;5.976;2024-01-11T00:47:30;53.37;51.64;55.40;;
71030;Laerm;63723;51.436;5.976;2024-01-11T00:47:41;53.49;50.23;55.27;;
71030;Laerm;63723;51.436;5.976;2024-01-11T00:47:51;53.52;51.50;55.18;;
71030;Laerm;63723;51.436;5.976;2024-01-11T00:48:01;53.43;51.04;55.17;;
71030;Laerm;63723;51.436;5.976;2024-01-11T00:48:12;53.42;51.57;55.39;;
71030;Laerm;63723;51.436;5.976;2024-01-11T00:48:22;53.32;51.64;55.47;;
71030;Laerm;63723;51.436;5.976;2024-01-11T00:48:33;53.23;51.41;54.85;;
71030;Laerm;63723;51.436;5.976;2024-01-11T00:48:43;53.48;51.62;54.84;;
71030;Laerm;63723;51.436;5.976;2024-01-11T00:48:53;53.31;51.83;55.15;;
71030;Laerm;63723;51.436;5.976;2024-01-11T00:49:04;53.04;51.37;54.53;;
71030;Laerm;63723;51.436;5.976;2024-01-11T00:49:14;53.38;51.48;55.26;;
71030;Laerm;63723;51.436;5.976;2024-01-11T00:49:24;53.91;52.39;55.09;;
71030;Laerm;63723;51.436;5.976;2024-01-11T00:49:34;54.04;52.25;55.14;;
71030;Laerm;63723;51.436;5.976;2024-01-11T00:49:45;53.50;51.67;55.52;;
71030;Laerm;63723;51.436;5.976;2024-01-11T00:49:55;53.39;51.84;55.25;;
71030;Laerm;63723;51.436;5.976;2024-01-11T00:50:06;53.37;51.16;55.41;;
71030;Laerm;63723;51.436;5.976;2024-01-11T00:50:16;53.30;50.91;55.12;;
71030;Laerm;63723;51.436;5.976;2024-01-11T00:50:27;53.26;50.78;55.46;;
71030;Laerm;63723;51.436;5.976;2024-01-11T00:50:37;53.33;51.48;55.71;;
71030;Laerm;63723;51.436;5.976;2024-01-11T00:50:47;53.44;51.68;55.34;;
71030;Laerm;63723;51.436;5.976;2024-01-11T00:50:57;53.42;50.94;55.24;;
71030;Laerm;63723;51.436;5.976;2024-01-11T00:51:07;53.39;51.43;55.39;;
71030;Laerm;63723;51.436;5.976;2024-01-11T00:51:18;53.44;51.78;55.55;;
71030;Laerm;63723;51.436;5.976;2024-01-11T00:51:28;53.43;51.56;55.39;;
71030;Laerm;63723;51.436;5.976;2024-01-11T00:51:38;53.45;51.39;55.29;;
71030;Laerm;63723;51.436;5.976;2024-01-11T00:51:49;53.41;51.94;54.68;;
71030;Laerm;63723;51.436;5.976;2024-01-11T00:51:59;53.47;51.86;55.55;;
71030;Laerm;63723;51.436;5.976;2024-01-11T00:52:09;53.73;51.47;59.27;;
71030;Laerm;63723;51.436;5.976;2024-01-11T00:52:20;53.64;51.70;54.73;;
71030;Laerm;63723;51.436;5.976;2024-01-11T00:52:30;53.80;52.09;55.12;;
71030;Laerm;63723;51.436;5.976;2024-01-11T00:52:40;54.15;52.12;55.30;;
71030;Laerm;63723;51.436;5.976;2024-01-11T00:52:50;53.93;51.82;55.21;;
71030;Laerm;63723;51.436;5.976;2024-01-11T00:53:01;54.03;52.61;56.31;;
71030;Laerm;63723;51.436;5.976;2024-01-11T00:53:11;54.17;53.05;55.08;;
71030;Laerm;63723;51.436;5.976;2024-01-11T00:53:24;54.09;52.99;55.36;;
71030;Laerm;63723;51.436;5.976;2024-01-11T00:53:34;54.13;52.75;55.19;;
71030;Laerm;63723;51.436;5.976;2024-01-11T00:53:44;54.18;52.97;55.16;;
71030;Laerm;63723;51.436;5.976;2024-01-11T00:53:55;54.05;53.04;54.94;;
71030;Laerm;63723;51.436;5.976;2024-01-11T00:54:05;54.01;52.59;55.25;;
71030;Laerm;63723;51.436;5.976;2024-01-11T00:54:15;54.03;53.12;54.97;;
71030;Laerm;63723;51.436;5.976;2024-01-11T00:54:25;54.06;52.64;54.94;;
71030;Laerm;63723;51.436;5.976;2024-01-11T00:54:36;53.96;51.56;55.20;;
71030;Laerm;63723;51.436;5.976;2024-01-11T00:54:46;53.24;51.73;54.51;;
71030;Laerm;63723;51.436;5.976;2024-01-11T00:54:56;53.39;51.45;58.49;;
71030;Laerm;63723;51.436;5.976;2024-01-11T00:55:06;53.42;51.79;54.65;;
71030;Laerm;63723;51.436;5.976;2024-01-11T00:55:17;53.50;51.38;54.87;;
71030;Laerm;63723;51.436;5.976;2024-01-11T00:55:27;53.96;52.85;55.02;;
71030;Laerm;63723;51.436;5.976;2024-01-11T00:55:37;54.12;52.40;56.25;;
71030;Laerm;63723;51.436;5.976;2024-01-11T00:55:48;54.14;51.87;56.90;;
71030;Laerm;63723;51.436;5.976;2024-01-11T00:55:58;54.06;52.96;56.54;;
71030;Laerm;63723;51.436;5.976;2024-01-11T00:56:17;54.05;52.88;55.31;;
71030;Laerm;63723;51.436;5.976;2024-01-11T00:56:28;53.23;51.00;55.31;;
71030;Laerm;63723;51.436;5.976;2024-01-11T00:56:38;52.27;50.98;53.56;;
71030;Laerm;63723;51.436;5.976;2024-01-11T00:56:48;53.12;51.08;56.65;;
71030;Laerm;63723;51.436;5.976;2024-01-11T00:56:58;53.67;52.32;55.06;;
71030;Laerm;63723;51.436;5.976;2024-01-11T00:57:09;53.72;52.01;56.51;;
71030;Laerm;63723;51.436;5.976;2024-01-11T00:57:19;53.70;52.55;54.97;;
71030;Laerm;63723;51.436;5.976;2024-01-11T00:57:29;53.70;51.90;55.59;;
71030;Laerm;63723;51.436;5.976;2024-01-11T00:57:39;53.81;52.07;55.27;;
71030;Laerm;63723;51.436;5.976;2024-01-11T00:57:50;53.85;52.01;55.24;;
71030;Laerm;63723;51.436;5.976;2024-01-11T00:58:00;53.97;52.10;55.54;;
71030;Laerm;63723;51.436;5.976;2024-01-11T00:58:11;54.08;52.81;55.99;;